sensor_id;sensor_type;location;lat;lon;timestamp;pressure;altitude;pressure_sealevel;temperature;humidity
20444;BME280;10381;53.730;10.010;2023-04-29T00:01:36;100761.41;;;6.79;100.00
20444;BME280;10381;53.730;10.010;2023-04-29T00:05:36;100764.16;;;6.78;100.00
20444;BME280;10381;53.730;10.010;2023-04-29T00:09:36;100765.44;;;6.72;100.00
20444;BME280;10381;53.730;10.010;2023-04-29T00:13:37;100770.72;;;6.72;100.00
20444;BME280;10381;53.730;10.010;2023-04-29T00:17:40;100764.84;;;6.69;100.00
20444;BME280;10381;53.730;10.010;2023-04-29T00:21:41;100760.28;;;6.71;100.00
20444;BME280;10381;53.730;10.010;2023-04-29T00:25:41;100765.19;;;6.64;100.00
20444;BME280;10381;53.730;10.010;2023-04-29T00:29:41;100762.53;;;6.64;100.00
20444;BME280;10381;53.730;10.010;2023-04-29T00:33:41;100768.97;;;6.60;100.00
20444;BME280;10381;53.730;10.010;2023-04-29T00:37:42;100769.91;;;6.59;100.00
20444;BME280;10381;53.730;10.010;2023-04-29T00:41:42;100774.34;;;6.58;100.00
20444;BME280;10381;53.730;10.010;2023-04-29T00:45:43;100781.50;;;6.56;100.00
20444;BME280;10381;53.730;10.010;2023-04-29T00:49:44;100774.56;;;6.55;100.00
20444;BME280;10381;53.730;10.010;2023-04-29T00:53:45;100784.25;;;6.55;100.00
20444;BME280;10381;53.730;10.010;2023-04-29T00:57:46;100794.06;;;6.53;100.00
20444;BME280;10381;53.730;10.010;2023-04-29T01:01:48;100803.53;;;6.55;100.00
20444;BME280;10381;53.730;10.010;2023-04-29T01:05:57;100805.09;;;6.58;100.00
20444;BME280;10381;53.730;10.010;2023-04-29T01:10:09;100809.53;;;6.57;100.00
20444;BME280;10381;53.730;10.010;2023-04-29T01:14:10;100811.41;;;6.55;100.00
20444;BME280;10381;53.730;10.010;2023-04-29T01:18:17;100810.44;;;6.56;100.00
20444;BME280;10381;53.730;10.010;2023-04-29T01:22:19;100810.59;;;6.55;100.00
20444;BME280;10381;53.730;10.010;2023-04-29T01:26:21;100813.94;;;6.57;100.00
20444;BME280;10381;53.730;10.010;2023-04-29T01:30:41;100814.88;;;6.56;100.00
20444;BME280;10381;53.730;10.010;2023-04-29T01:35:10;100816.44;;;6.58;100.00
20444;BME280;10381;53.730;10.010;2023-04-29T01:39:36;100815.00;;;6.54;100.00
20444;BME280;10381;53.730;10.010;2023-04-29T01:43:42;100815.84;;;6.55;100.00
20444;BME280;10381;53.730;10.010;2023-04-29T01:47:43;100825.41;;;6.56;100.00
20444;BME280;10381;53.730;10.010;2023-04-29T01:51:45;100826.88;;;6.60;100.00
20444;BME280;10381;53.730;10.010;2023-04-29T01:55:45;100841.72;;;6.61;100.00
20444;BME280;10381;53.730;10.010;2023-04-29T01:59:46;100835.38;;;6.64;100.00
20444;BME280;10381;53.730;10.010;2023-04-29T02:03:47;100850.13;;;6.66;100.00
20444;BME280;10381;53.730;10.010;2023-04-29T02:07:47;100856.06;;;6.57;100.00
20444;BME280;10381;53.730;10.010;2023-04-29T02:11:47;100868.59;;;6.53;100.00
20444;BME280;10381;53.730;10.010;2023-04-29T02:15:47;100869.31;;;6.55;100.00
20444;BME280;10381;53.730;10.010;2023-04-29T02:19:48;100872.19;;;6.52;100.00
20444;BME280;10381;53.730;10.010;2023-04-29T02:23:48;100868.28;;;6.58;100.00
20444;BME280;10381;53.730;10.010;2023-04-29T02:27:49;100872.16;;;6.65;100.00
20444;BME280;10381;53.730;10.010;2023-04-29T02:31:50;100871.19;;;6.66;100.00
20444;BME280;10381;53.730;10.010;2023-04-29T02:35:51;100873.94;;;6.65;100.00
20444;BME280;10381;53.730;10.010;2023-04-29T02:39:51;100873.94;;;6.65;100.00
20444;BME280;10381;53.730;10.010;2023-04-29T02:43:51;100878.88;;;6.56;100.00
20444;BME280;10381;53.730;10.010;2023-04-29T02:47:52;100895.34;;;6.47;100.00
20444;BME280;10381;53.730;10.010;2023-04-29T02:51:52;100885.13;;;6.43;100.00
20444;BME280;10381;53.730;10.010;2023-04-29T02:55:52;100882.19;;;6.34;100.00
20444;BME280;10381;53.730;10.010;2023-04-29T02:59:52;100886.00;;;6.30;100.00
20444;BME280;10381;53.730;10.010;2023-04-29T03:03:53;100895.84;;;6.39;100.00
20444;BME280;10381;53.730;10.010;2023-04-29T03:07:53;100906.06;;;6.44;100.00
20444;BME280;10381;53.730;10.010;2023-04-29T03:11:54;100909.97;;;6.51;100.00
20444;BME280;10381;53.730;10.010;2023-04-29T03:15:54;100920.31;;;6.54;100.00
20444;BME280;10381;53.730;10.010;2023-04-29T03:19:57;100927.44;;;6.39;100.00
20444;BME280;10381;53.730;10.010;2023-04-29T03:23:57;100929.22;;;6.39;100.00
20444;BME280;10381;53.730;10.010;2023-04-29T03:27:58;100940.28;;;6.44;100.00
20444;BME280;10381;53.730;10.010;2023-04-29T03:31:58;100936.94;;;6.55;100.00
20444;BME280;10381;53.730;10.010;2023-04-29T03:35:58;100935.03;;;6.57;100.00
20444;BME280;10381;53.730;10.010;2023-04-29T03:39:59;100936.72;;;6.58;100.00
20444;BME280;10381;53.730;10.010;2023-04-29T03:43:59;100937.16;;;6.52;100.00
20444;BME280;10381;53.730;10.010;2023-04-29T03:48:00;100932.59;;;6.41;100.00
20444;BME280;10381;53.730;10.010;2023-04-29T03:52:00;100942.38;;;6.26;100.00
20444;BME280;10381;53.730;10.010;2023-04-29T03:56:00;100946.91;;;6.24;100.00
20444;BME280;10381;53.730;10.010;2023-04-29T04:00:00;100957.75;;;6.32;100.00
20444;BME280;10381;53.730;10.010;2023-04-29T04:04:01;100969.44;;;6.41;100.00
20444;BME280;10381;53.730;10.010;2023-04-29T04:08:01;100975.16;;;6.48;100.00
20444;BME280;10381;53.730;10.010;2023-04-29T04:12:01;100979.97;;;6.54;100.00
20444;BME280;10381;53.730;10.010;2023-04-29T04:16:02;100980.72;;;6.56;100.00
20444;BME280;10381;53.730;10.010;2023-04-29T04:20:03;100993.03;;;6.55;100.00
20444;BME280;10381;53.730;10.010;2023-04-29T04:24:03;100992.59;;;6.49;100.00
20444;BME280;10381;53.730;10.010;2023-04-29T04:28:04;100998.84;;;6.48;100.00
20444;BME280;10381;53.730;10.010;2023-04-29T04:32:04;100999.34;;;6.40;100.00
20444;BME280;10381;53.730;10.010;2023-04-29T04:36:05;101000.59;;;6.34;100.00
20444;BME280;10381;53.730;10.010;2023-04-29T04:40:06;101009.75;;;6.42;100.00
20444;BME280;10381;53.730;10.010;2023-04-29T04:44:06;101015.06;;;6.67;100.00
20444;BME280;10381;53.730;10.010;2023-04-29T04:48:07;101023.34;;;7.25;100.00
20444;BME280;10381;53.730;10.010;2023-04-29T04:52:07;101027.16;;;7.08;100.00
20444;BME280;10381;53.730;10.010;2023-04-29T04:56:07;101034.72;;;7.62;100.00
20444;BME280;10381;53.730;10.010;2023-04-29T05:00:08;101030.09;;;7.66;100.00
20444;BME280;10381;53.730;10.010;2023-04-29T05:04:09;101025.59;;;8.39;100.00
20444;BME280;10381;53.730;10.010;2023-04-29T05:08:09;101013.34;;;8.73;100.00
20444;BME280;10381;53.730;10.010;2023-04-29T05:12:09;101005.47;;;9.62;100.00
20444;BME280;10381;53.730;10.010;2023-04-29T05:16:10;100992.66;;;9.46;100.00
20444;BME280;10381;53.730;10.010;2023-04-29T05:20:11;100994.97;;;9.28;100.00
20444;BME280;10381;53.730;10.010;2023-04-29T05:24:11;100997.00;;;9.35;100.00
20444;BME280;10381;53.730;10.010;2023-04-29T05:28:13;100992.00;;;8.76;100.00
20444;BME280;10381;53.730;10.010;2023-04-29T05:32:13;101000.22;;;8.25;100.00
20444;BME280;10381;53.730;10.010;2023-04-29T05:36:14;101001.09;;;9.39;100.00
20444;BME280;10381;53.730;10.010;2023-04-29T05:40:14;101000.06;;;10.28;100.00
20444;BME280;10381;53.730;10.010;2023-04-29T05:44:15;101011.66;;;10.90;100.00
20444;BME280;10381;53.730;10.010;2023-04-29T05:48:15;101008.28;;;9.49;100.00
20444;BME280;10381;53.730;10.010;2023-04-29T05:52:15;101017.34;;;9.78;100.00
20444;BME280;10381;53.730;10.010;2023-04-29T05:56:16;101019.75;;;10.14;100.00
20444;BME280;10381;53.730;10.010;2023-04-29T06:00:17;101024.84;;;11.11;100.00
20444;BME280;10381;53.730;10.010;2023-04-29T06:04:17;101025.53;;;10.82;100.00
20444;BME280;10381;53.730;10.010;2023-04-29T06:08:18;101039.50;;;9.77;100.00
20444;BME280;10381;53.730;10.010;2023-04-29T06:12:18;101043.59;;;11.19;100.00
20444;BME280;10381;53.730;10.010;2023-04-29T06:16:18;101054.69;;;10.82;100.00
20444;BME280;10381;53.730;10.010;2023-04-29T06:20:19;101063.66;;;10.16;100.00
20444;BME280;10381;53.730;10.010;2023-04-29T06:24:19;101058.47;;;10.15;100.00
20444;BME280;10381;53.730;10.010;2023-04-29T06:28:19;101066.00;;;10.42;100.00
20444;BME280;10381;53.730;10.010;2023-04-29T06:32:20;101067.53;;;10.12;100.00
20444;BME280;10381;53.730;10.010;2023-04-29T06:36:20;101062.16;;;9.36;100.00
20444;BME280;10381;53.730;10.010;2023-04-29T06:40:20;101066.72;;;9.23;100.00
20444;BME280;10381;53.730;10.010;2023-04-29T06:44:21;101066.03;;;10.31;100.00
20444;BME280;10381;53.730;10.010;2023-04-29T06:48:21;101077.91;;;10.04;100.00
20444;BME280;10381;53.730;10.010;2023-04-29T06:52:22;101091.84;;;9.17;100.00
20444;BME280;10381;53.730;10.010;2023-04-29T06:56:22;101097.81;;;10.19;100.00
20444;BME280;10381;53.730;10.010;2023-04-29T07:00:22;101089.50;;;9.80;100.00
20444;BME280;10381;53.730;10.010;2023-04-29T07:04:23;101097.19;;;9.95;100.00
20444;BME280;10381;53.730;10.010;2023-04-29T07:08:23;101100.72;;;9.73;100.00
20444;BME280;10381;53.730;10.010;2023-04-29T07:12:24;101096.97;;;9.64;100.00
20444;BME280;10381;53.730;10.010;2023-04-29T07:16:25;101101.22;;;10.75;100.00
20444;BME280;10381;53.730;10.010;2023-04-29T07:20:27;101112.59;;;9.90;100.00
20444;BME280;10381;53.730;10.010;2023-04-29T07:24:27;101110.81;;;9.79;100.00
20444;BME280;10381;53.730;10.010;2023-04-29T07:28:27;101114.66;;;9.75;100.00
20444;BME280;10381;53.730;10.010;2023-04-29T07:32:28;101121.00;;;9.95;100.00
20444;BME280;10381;53.730;10.010;2023-04-29T07:36:28;101133.81;;;9.67;100.00
20444;BME280;10381;53.730;10.010;2023-04-29T07:40:28;101134.44;;;10.14;100.00
20444;BME280;10381;53.730;10.010;2023-04-29T07:44:28;101138.84;;;9.81;100.00
20444;BME280;10381;53.730;10.010;2023-04-29T07:48:29;101125.72;;;9.69;100.00
20444;BME280;10381;53.730;10.010;2023-04-29T07:52:29;101135.31;;;9.81;100.00
20444;BME280;10381;53.730;10.010;2023-04-29T07:56:30;101144.47;;;9.88;100.00
20444;BME280;10381;53.730;10.010;2023-04-29T08:00:30;101144.91;;;10.59;100.00
20444;BME280;10381;53.730;10.010;2023-04-29T08:04:30;101155.88;;;10.00;100.00
20444;BME280;10381;53.730;10.010;2023-04-29T08:08:31;101155.66;;;10.03;100.00
20444;BME280;10381;53.730;10.010;2023-04-29T08:12:31;101162.56;;;10.27;100.00
20444;BME280;10381;53.730;10.010;2023-04-29T08:16:31;101175.47;;;10.09;100.00
20444;BME280;10381;53.730;10.010;2023-04-29T08:20:31;101175.81;;;10.38;100.00
20444;BME280;10381;53.730;10.010;2023-04-29T08:24:32;101180.25;;;11.02;100.00
20444;BME280;10381;53.730;10.010;2023-04-29T08:28:34;101183.69;;;10.60;100.00
20444;BME280;10381;53.730;10.010;2023-04-29T08:32:34;101196.91;;;10.60;100.00
20444;BME280;10381;53.730;10.010;2023-04-29T08:36:34;101194.66;;;11.30;100.00
20444;BME280;10381;53.730;10.010;2023-04-29T08:40:44;101205.13;;;11.52;100.00
20444;BME280;10381;53.730;10.010;2023-04-29T08:44:45;101203.03;;;11.04;100.00
20444;BME280;10381;53.730;10.010;2023-04-29T08:48:46;101212.81;;;11.56;100.00
20444;BME280;10381;53.730;10.010;2023-04-29T08:52:48;101210.72;;;11.28;100.00
20444;BME280;10381;53.730;10.010;2023-04-29T08:56:50;101215.66;;;11.64;100.00
20444;BME280;10381;53.730;10.010;2023-04-29T09:00:51;101209.00;;;11.69;100.00
20444;BME280;10381;53.730;10.010;2023-04-29T09:08:55;101215.22;;;11.59;100.00
20444;BME280;10381;53.730;10.010;2023-04-29T09:12:57;101221.75;;;11.85;100.00
20444;BME280;10381;53.730;10.010;2023-04-29T09:16:58;101218.94;;;11.77;100.00
20444;BME280;10381;53.730;10.010;2023-04-29T09:21:14;101228.44;;;11.80;100.00
20444;BME280;10381;53.730;10.010;2023-04-29T09:25:15;101225.66;;;12.12;100.00
20444;BME280;10381;53.730;10.010;2023-04-29T09:29:15;101228.69;;;12.48;100.00
20444;BME280;10381;53.730;10.010;2023-04-29T09:33:17;101247.66;;;12.24;100.00
20444;BME280;10381;53.730;10.010;2023-04-29T09:37:25;101249.13;;;12.07;100.00
20444;BME280;10381;53.730;10.010;2023-04-29T09:41:26;101255.03;;;12.61;100.00
20444;BME280;10381;53.730;10.010;2023-04-29T09:45:33;101254.72;;;12.44;100.00
20444;BME280;10381;53.730;10.010;2023-04-29T09:49:37;101248.59;;;12.63;100.00
20444;BME280;10381;53.730;10.010;2023-04-29T09:53:39;101262.47;;;12.26;100.00
20444;BME280;10381;53.730;10.010;2023-04-29T09:57:40;101260.50;;;12.19;100.00
20444;BME280;10381;53.730;10.010;2023-04-29T10:01:41;101256.31;;;12.16;100.00
20444;BME280;10381;53.730;10.010;2023-04-29T10:05:41;101254.28;;;11.99;100.00
20444;BME280;10381;53.730;10.010;2023-04-29T10:09:46;101262.66;;;12.34;100.00
20444;BME280;10381;53.730;10.010;2023-04-29T10:13:49;101260.63;;;12.87;100.00
20444;BME280;10381;53.730;10.010;2023-04-29T10:17:57;101249.16;;;12.86;100.00
20444;BME280;10381;53.730;10.010;2023-04-29T10:22:06;101250.75;;;13.37;100.00
20444;BME280;10381;53.730;10.010;2023-04-29T10:26:07;101264.59;;;13.31;100.00
20444;BME280;10381;53.730;10.010;2023-04-29T10:30:12;101278.16;;;12.99;100.00
20444;BME280;10381;53.730;10.010;2023-04-29T10:34:16;101273.53;;;13.01;100.00
20444;BME280;10381;53.730;10.010;2023-04-29T10:38:28;101273.28;;;13.33;100.00
20444;BME280;10381;53.730;10.010;2023-04-29T10:46:35;101272.88;;;13.28;100.00
20444;BME280;10381;53.730;10.010;2023-04-29T10:55:01;101282.78;;;13.46;100.00
20444;BME280;10381;53.730;10.010;2023-04-29T10:59:01;101294.69;;;13.22;100.00
20444;BME280;10381;53.730;10.010;2023-04-29T11:03:04;101278.44;;;13.64;100.00
20444;BME280;10381;53.730;10.010;2023-04-29T11:07:05;101264.53;;;13.60;100.00
20444;BME280;10381;53.730;10.010;2023-04-29T11:11:05;101274.25;;;13.99;100.00
20444;BME280;10381;53.730;10.010;2023-04-29T11:15:07;101275.59;;;13.66;100.00
20444;BME280;10381;53.730;10.010;2023-04-29T11:19:14;101271.88;;;14.23;100.00
20444;BME280;10381;53.730;10.010;2023-04-29T11:23:15;101278.00;;;13.69;100.00
20444;BME280;10381;53.730;10.010;2023-04-29T11:27:18;101278.53;;;13.72;100.00
20444;BME280;10381;53.730;10.010;2023-04-29T11:31:19;101285.38;;;13.84;100.00
20444;BME280;10381;53.730;10.010;2023-04-29T11:35:20;101285.38;;;14.22;100.00
20444;BME280;10381;53.730;10.010;2023-04-29T11:39:20;101297.91;;;13.64;96.29
20444;BME280;10381;53.730;10.010;2023-04-29T11:43:21;101286.38;;;14.48;100.00
20444;BME280;10381;53.730;10.010;2023-04-29T11:47:29;101289.56;;;14.24;96.75
20444;BME280;10381;53.730;10.010;2023-04-29T11:51:29;101302.72;;;13.98;96.15
20444;BME280;10381;53.730;10.010;2023-04-29T11:55:31;101294.97;;;13.58;100.00
20444;BME280;10381;53.730;10.010;2023-04-29T11:59:32;101294.00;;;14.06;100.00
20444;BME280;10381;53.730;10.010;2023-04-29T12:03:32;101295.63;;;15.18;98.66
20444;BME280;10381;53.730;10.010;2023-04-29T12:07:34;101298.41;;;14.98;97.13
20444;BME280;10381;53.730;10.010;2023-04-29T12:11:35;101312.50;;;14.73;85.92
20444;BME280;10381;53.730;10.010;2023-04-29T12:15:36;101308.38;;;14.78;88.84
20444;BME280;10381;53.730;10.010;2023-04-29T12:19:38;101317.34;;;14.87;86.85
20444;BME280;10381;53.730;10.010;2023-04-29T12:23:39;101314.03;;;14.75;78.96
20444;BME280;10381;53.730;10.010;2023-04-29T12:27:41;101320.38;;;14.37;78.56
20444;BME280;10381;53.730;10.010;2023-04-29T12:31:42;101312.38;;;15.10;80.66
20444;BME280;10381;53.730;10.010;2023-04-29T12:35:50;101319.13;;;15.76;73.95
20444;BME280;10381;53.730;10.010;2023-04-29T12:39:50;101312.00;;;15.23;79.05
20444;BME280;10381;53.730;10.010;2023-04-29T12:43:51;101316.75;;;14.65;77.99
20444;BME280;10381;53.730;10.010;2023-04-29T12:47:52;101320.41;;;14.27;80.05
20444;BME280;10381;53.730;10.010;2023-04-29T12:51:54;101304.78;;;14.42;95.77
20444;BME280;10381;53.730;10.010;2023-04-29T12:55:54;101322.72;;;14.12;98.67
20444;BME280;10381;53.730;10.010;2023-04-29T12:59:55;101316.00;;;14.73;93.84
20444;BME280;10381;53.730;10.010;2023-04-29T13:03:56;101318.72;;;14.26;99.36
20444;BME280;10381;53.730;10.010;2023-04-29T13:07:56;101326.78;;;14.99;85.48
20444;BME280;10381;53.730;10.010;2023-04-29T13:11:56;101340.06;;;14.63;82.35
20444;BME280;10381;53.730;10.010;2023-04-29T13:15:58;101323.06;;;14.64;81.19
20444;BME280;10381;53.730;10.010;2023-04-29T13:19:59;101339.75;;;15.12;76.97
20444;BME280;10381;53.730;10.010;2023-04-29T13:23:59;101329.94;;;14.30;79.33
20444;BME280;10381;53.730;10.010;2023-04-29T13:28:00;101326.44;;;14.66;79.35
20444;BME280;10381;53.730;10.010;2023-04-29T13:32:00;101340.75;;;13.81;77.93
20444;BME280;10381;53.730;10.010;2023-04-29T13:36:01;101337.06;;;14.01;82.55
20444;BME280;10381;53.730;10.010;2023-04-29T13:40:01;101329.75;;;14.03;82.47
20444;BME280;10381;53.730;10.010;2023-04-29T13:44:01;101339.84;;;14.10;84.19
20444;BME280;10381;53.730;10.010;2023-04-29T13:48:03;101340.88;;;13.89;83.10
20444;BME280;10381;53.730;10.010;2023-04-29T13:52:03;101351.06;;;14.03;85.17
20444;BME280;10381;53.730;10.010;2023-04-29T13:56:04;101362.69;;;14.12;81.89
20444;BME280;10381;53.730;10.010;2023-04-29T14:00:05;101350.13;;;14.32;82.98
20444;BME280;10381;53.730;10.010;2023-04-29T14:04:09;101358.66;;;13.98;80.87
20444;BME280;10381;53.730;10.010;2023-04-29T14:08:09;101359.31;;;14.20;84.07
20444;BME280;10381;53.730;10.010;2023-04-29T14:12:10;101372.47;;;13.45;81.10
20444;BME280;10381;53.730;10.010;2023-04-29T14:16:10;101376.44;;;14.07;81.12
20444;BME280;10381;53.730;10.010;2023-04-29T14:20:11;101375.25;;;13.53;82.32
20444;BME280;10381;53.730;10.010;2023-04-29T14:24:11;101381.19;;;14.61;82.48
20444;BME280;10381;53.730;10.010;2023-04-29T14:28:12;101386.59;;;13.75;80.62
20444;BME280;10381;53.730;10.010;2023-04-29T14:32:12;101389.69;;;13.51;86.54
20444;BME280;10381;53.730;10.010;2023-04-29T14:36:13;101393.19;;;13.51;91.46
20444;BME280;10381;53.730;10.010;2023-04-29T14:40:13;101385.00;;;13.14;100.00
20444;BME280;10381;53.730;10.010;2023-04-29T14:44:13;101388.88;;;12.90;100.00
20444;BME280;10381;53.730;10.010;2023-04-29T14:48:14;101391.16;;;13.14;100.00
20444;BME280;10381;53.730;10.010;2023-04-29T14:52:14;101401.28;;;12.70;100.00
20444;BME280;10381;53.730;10.010;2023-04-29T14:56:16;101396.00;;;12.49;100.00
20444;BME280;10381;53.730;10.010;2023-04-29T15:00:16;101395.63;;;12.33;100.00
20444;BME280;10381;53.730;10.010;2023-04-29T15:04:17;101408.75;;;12.25;100.00
20444;BME280;10381;53.730;10.010;2023-04-29T15:08:17;101411.19;;;12.38;100.00
20444;BME280;10381;53.730;10.010;2023-04-29T15:12:18;101407.63;;;12.48;100.00
20444;BME280;10381;53.730;10.010;2023-04-29T15:16:20;101416.06;;;11.90;100.00
20444;BME280;10381;53.730;10.010;2023-04-29T15:20:20;101412.50;;;12.53;100.00
20444;BME280;10381;53.730;10.010;2023-04-29T15:24:20;101416.09;;;13.13;100.00
20444;BME280;10381;53.730;10.010;2023-04-29T15:28:20;101432.97;;;14.01;100.00
20444;BME280;10381;53.730;10.010;2023-04-29T15:32:23;101431.22;;;14.77;100.00
20444;BME280;10381;53.730;10.010;2023-04-29T15:36:31;101434.13;;;14.56;100.00
20444;BME280;10381;53.730;10.010;2023-04-29T15:40:32;101430.72;;;16.26;97.95
20444;BME280;10381;53.730;10.010;2023-04-29T15:44:32;101433.28;;;12.69;100.00
20444;BME280;10381;53.730;10.010;2023-04-29T15:48:33;101437.69;;;13.30;100.00
20444;BME280;10381;53.730;10.010;2023-04-29T15:52:33;101442.66;;;14.49;100.00
20444;BME280;10381;53.730;10.010;2023-04-29T15:56:33;101430.03;;;14.61;100.00
20444;BME280;10381;53.730;10.010;2023-04-29T16:00:33;101456.72;;;15.44;91.19
20444;BME280;10381;53.730;10.010;2023-04-29T16:04:34;101452.03;;;13.48;100.00
20444;BME280;10381;53.730;10.010;2023-04-29T16:08:34;101449.06;;;13.01;100.00
20444;BME280;10381;53.730;10.010;2023-04-29T16:12:35;101446.59;;;13.09;100.00
20444;BME280;10381;53.730;10.010;2023-04-29T16:16:35;101456.38;;;11.52;100.00
20444;BME280;10381;53.730;10.010;2023-04-29T16:20:36;101459.22;;;12.76;100.00
20444;BME280;10381;53.730;10.010;2023-04-29T16:24:36;101468.41;;;13.53;100.00
20444;BME280;10381;53.730;10.010;2023-04-29T16:28:36;101469.09;;;12.65;100.00
20444;BME280;10381;53.730;10.010;2023-04-29T16:32:37;101464.78;;;12.01;100.00
20444;BME280;10381;53.730;10.010;2023-04-29T16:36:37;101467.13;;;13.28;100.00
20444;BME280;10381;53.730;10.010;2023-04-29T16:40:37;101472.84;;;12.62;99.34
20444;BME280;10381;53.730;10.010;2023-04-29T16:44:37;101475.66;;;13.32;99.62
20444;BME280;10381;53.730;10.010;2023-04-29T16:48:38;101488.19;;;13.90;100.00
20444;BME280;10381;53.730;10.010;2023-04-29T16:52:38;101485.94;;;13.85;97.62
20444;BME280;10381;53.730;10.010;2023-04-29T16:56:38;101494.44;;;15.04;83.66
20444;BME280;10381;53.730;10.010;2023-04-29T17:00:39;101504.16;;;16.40;71.14
20444;BME280;10381;53.730;10.010;2023-04-29T17:04:39;101497.72;;;13.22;79.65
20444;BME280;10381;53.730;10.010;2023-04-29T17:08:40;101494.19;;;13.12;92.51
20444;BME280;10381;53.730;10.010;2023-04-29T17:12:40;101487.44;;;10.95;100.00
20444;BME280;10381;53.730;10.010;2023-04-29T17:16:40;101499.31;;;12.01;100.00
20444;BME280;10381;53.730;10.010;2023-04-29T17:20:41;101524.63;;;14.47;80.51
20444;BME280;10381;53.730;10.010;2023-04-29T17:24:43;101522.56;;;13.83;77.62
20444;BME280;10381;53.730;10.010;2023-04-29T17:28:46;101520.13;;;13.20;71.77
20444;BME280;10381;53.730;10.010;2023-04-29T17:32:46;101525.19;;;12.62;77.68
20444;BME280;10381;53.730;10.010;2023-04-29T17:36:49;101530.22;;;13.47;77.87
20444;BME280;10381;53.730;10.010;2023-04-29T17:40:49;101534.47;;;13.98;76.32
20444;BME280;10381;53.730;10.010;2023-04-29T17:44:50;101533.34;;;13.91;73.07
20444;BME280;10381;53.730;10.010;2023-04-29T17:48:51;101518.78;;;11.24;90.07
20444;BME280;10381;53.730;10.010;2023-04-29T17:52:51;101515.13;;;9.87;100.00
20444;BME280;10381;53.730;10.010;2023-04-29T17:56:51;101523.31;;;9.71;100.00
20444;BME280;10381;53.730;10.010;2023-04-29T18:00:51;101525.63;;;9.51;100.00
20444;BME280;10381;53.730;10.010;2023-04-29T18:04:52;101525.34;;;9.30;100.00
20444;BME280;10381;53.730;10.010;2023-04-29T18:08:52;101539.38;;;9.07;100.00
20444;BME280;10381;53.730;10.010;2023-04-29T18:12:53;101554.47;;;8.92;100.00
20444;BME280;10381;53.730;10.010;2023-04-29T18:16:53;101552.06;;;8.76;100.00
20444;BME280;10381;53.730;10.010;2023-04-29T18:20:54;101556.03;;;8.56;100.00
20444;BME280;10381;53.730;10.010;2023-04-29T18:24:55;101559.50;;;8.44;100.00
20444;BME280;10381;53.730;10.010;2023-04-29T18:28:55;101556.19;;;8.27;100.00
20444;BME280;10381;53.730;10.010;2023-04-29T18:32:56;101564.16;;;8.13;100.00
20444;BME280;10381;53.730;10.010;2023-04-29T18:36:56;101580.47;;;8.05;100.00
20444;BME280;10381;53.730;10.010;2023-04-29T18:40:56;101573.00;;;7.85;100.00
20444;BME280;10381;53.730;10.010;2023-04-29T18:44:57;101582.66;;;7.72;100.00
20444;BME280;10381;53.730;10.010;2023-04-29T18:48:57;101587.66;;;7.62;100.00
20444;BME280;10381;53.730;10.010;2023-04-29T18:52:57;101587.78;;;7.46;100.00
20444;BME280;10381;53.730;10.010;2023-04-29T18:56:57;101596.16;;;7.38;100.00
20444;BME280;10381;53.730;10.010;2023-04-29T19:00:58;101606.41;;;7.29;100.00
20444;BME280;10381;53.730;10.010;2023-04-29T19:04:58;101607.09;;;7.18;100.00
20444;BME280;10381;53.730;10.010;2023-04-29T19:09:02;101615.19;;;7.00;100.00
20444;BME280;10381;53.730;10.010;2023-04-29T19:13:02;101619.75;;;6.97;100.00
20444;BME280;10381;53.730;10.010;2023-04-29T19:17:02;101629.44;;;6.82;100.00
20444;BME280;10381;53.730;10.010;2023-04-29T19:21:03;101633.56;;;6.72;100.00
20444;BME280;10381;53.730;10.010;2023-04-29T19:25:03;101637.03;;;6.72;100.00
20444;BME280;10381;53.730;10.010;2023-04-29T19:29:04;101642.06;;;6.61;100.00
20444;BME280;10381;53.730;10.010;2023-04-29T19:33:04;101644.97;;;6.56;100.00
20444;BME280;10381;53.730;10.010;2023-04-29T19:37:04;101650.78;;;6.47;100.00
20444;BME280;10381;53.730;10.010;2023-04-29T19:41:05;101657.22;;;6.42;100.00
20444;BME280;10381;53.730;10.010;2023-04-29T19:45:06;101660.66;;;6.28;100.00
20444;BME280;10381;53.730;10.010;2023-04-29T19:49:06;101666.31;;;6.20;100.00
20444;BME280;10381;53.730;10.010;2023-04-29T19:53:06;101668.53;;;6.12;100.00
20444;BME280;10381;53.730;10.010;2023-04-29T19:57:08;101669.75;;;6.06;100.00
20444;BME280;10381;53.730;10.010;2023-04-29T20:01:08;101675.00;;;6.06;100.00
20444;BME280;10381;53.730;10.010;2023-04-29T20:05:09;101674.44;;;5.84;100.00
20444;BME280;10381;53.730;10.010;2023-04-29T20:09:09;101681.78;;;5.77;100.00
20444;BME280;10381;53.730;10.010;2023-04-29T20:13:10;101684.88;;;5.85;100.00
20444;BME280;10381;53.730;10.010;2023-04-29T20:17:10;101692.41;;;5.75;100.00
20444;BME280;10381;53.730;10.010;2023-04-29T20:21:11;101688.94;;;5.75;100.00
20444;BME280;10381;53.730;10.010;2023-04-29T20:25:11;101697.91;;;5.71;100.00
20444;BME280;10381;53.730;10.010;2023-04-29T20:29:11;101706.13;;;5.65;100.00
20444;BME280;10381;53.730;10.010;2023-04-29T20:33:11;101710.16;;;5.54;100.00
20444;BME280;10381;53.730;10.010;2023-04-29T20:37:12;101709.41;;;5.52;100.00
20444;BME280;10381;53.730;10.010;2023-04-29T20:41:12;101715.84;;;5.47;100.00
20444;BME280;10381;53.730;10.010;2023-04-29T20:45:12;101719.09;;;5.34;100.00
20444;BME280;10381;53.730;10.010;2023-04-29T20:49:13;101724.38;;;5.17;100.00
20444;BME280;10381;53.730;10.010;2023-04-29T20:53:13;101712.69;;;5.05;100.00